Time;durP1;ratioP1;P1;durP2;ratioP2;P2;SDS_P1;SDS_P2;PMS_P1;PMS_P2;Temp;Humidity;BMP_temperature;BMP_pressure;BME280_temperature;BME280_humidity;BME280_pressure;Samples;Min_cycle;Max_cycle;Signal;HPM_P1;HPM_P2
2024/04/23 05:16:32;;;;;;;8.95;6.15;;;;;;;;;;2255766;25;20556;-62
2024/04/23 05:17:34;;;;;;;12.32;6.97;;;;;;;;;;2250596;26;20221;-62
2024/04/23 05:18:35;;;;;;;10.02;6.50;;;;;;;;;;2251642;26;20213;-62
2024/04/23 07:06:30;;;;;;;7.68;5.15;;;;;;;5.03;68.97;96622.72;2224866;26;20626;-68
2024/04/23 07:07:33;;;;;;;7.60;4.97;;;;;;;5.16;68.34;96620.69;2219235;26;20678;-69
2024/04/23 07:08:34;;;;;;;9.80;4.90;;;;;;;5.29;67.75;96618.66;2220257;26;20306;-69
2024/04/23 07:09:36;;;;;;;8.45;4.90;;;;;;;5.26;67.75;96621.34;2221948;26;20212;-69
2024/04/23 07:10:37;;;;;;;9.52;5.13;;;;;;;5.48;66.63;96615.63;2213610;26;20329;-69
2024/04/23 07:11:39;;;;;;;8.55;4.57;;;;;;;5.68;66.78;96621.16;2199786;26;20223;-69
2024/04/23 07:12:41;;;;;;;10.40;4.60;;;;;;;5.98;66.58;96621.28;2197649;26;20217;-69
2024/04/23 07:13:46;;;;;;;17.70;6.65;;;;;;;5.72;66.15;96621.94;2202686;26;20222;-69
2024/04/23 07:14:47;;;;;;;15.25;8.45;;;;;;;4.98;67.71;96621.97;2196676;26;20224;-69
2024/04/23 07:15:49;;;;;;;17.10;8.65;;;;;;;4.91;68.00;96617.81;2195304;26;20257;-68
2024/04/23 07:16:50;;;;;;;17.90;10.50;;;;;;;5.67;66.81;96618.59;2199906;26;20226;-69
2024/04/23 07:17:52;;;;;;;15.93;8.50;;;;;;;5.60;66.30;96617.06;2209232;26;20222;-67
2024/04/23 07:18:54;;;;;;;20.48;9.80;;;;;;;5.96;64.82;96624.78;2204458;26;20377;-67
2024/04/23 07:20:03;;;;;;;9.98;5.90;;;;;;;6.19;64.59;96625.00;2200544;26;20240;-67
2024/04/23 07:21:04;;;;;;;10.77;5.80;;;;;;;6.46;64.86;96619.97;2198926;26;20298;-66
2024/04/23 07:22:06;;;;;;;10.88;5.35;;;;;;;6.63;63.59;96611.69;2200442;26;20265;-67
2024/04/23 07:23:08;;;;;;;14.90;6.97;;;;;;;6.78;63.03;96615.56;2199523;26;20325;-67
2024/04/23 07:24:09;;;;;;;24.17;13.50;;;;;;;6.46;62.52;96619.97;2200449;26;21010;-67
2024/04/23 07:25:11;;;;;;;56.20;29.08;;;;;;;6.67;63.12;96620.25;2199112;26;20560;-67
2024/04/23 07:26:12;;;;;;;76.03;42.42;;;;;;;7.11;61.52;96607.66;2197031;26;20715;-67
2024/04/23 07:27:14;;;;;;;21.70;11.38;;;;;;;6.80;61.83;96618.97;2197904;26;20270;-66
2024/04/23 07:28:16;;;;;;;13.82;7.80;;;;;;;7.25;61.79;96611.53;2204541;26;20678;-66
2024/04/23 07:29:17;;;;;;;9.73;4.78;;;;;;;7.28;60.90;96607.09;2211666;26;20502;-66
2024/04/23 07:30:23;;;;;;;7.78;4.80;;;;;;;7.40;60.72;96605.84;2200986;26;20232;-66
2024/04/23 07:31:24;;;;;;;7.32;4.53;;;;;;;7.67;60.62;96605.84;2206945;26;20235;-66
2024/04/23 07:32:26;;;;;;;6.80;4.43;;;;;;;7.98;60.73;96604.78;2204515;26;20266;-65
2024/04/23 07:33:27;;;;;;;6.95;4.03;;;;;;;8.12;59.96;96599.94;2200464;26;20534;-66
2024/04/23 07:34:29;;;;;;;7.43;4.65;;;;;;;8.27;59.01;96606.34;2197987;26;20280;-66
2024/04/23 07:35:31;;;;;;;8.93;4.57;;;;;;;7.82;59.96;96604.47;2201673;26;20229;-66
2024/04/23 07:36:32;;;;;;;9.02;4.75;;;;;;;8.15;58.89;96599.84;2202976;26;20579;-66
2024/04/23 07:37:34;;;;;;;7.60;4.47;;;;;;;8.38;58.40;96595.56;2196668;26;20224;-66
2024/04/23 07:38:35;;;;;;;9.23;3.80;;;;;;;8.28;58.72;96596.81;2194152;26;20720;-66
2024/04/23 07:39:37;;;;;;;9.18;4.60;;;;;;;8.24;58.35;96592.59;2199612;26;20724;-66
2024/04/23 07:40:41;;;;;;;8.25;4.82;;;;;;;7.79;58.66;96597.63;2198860;26;20224;-67
2024/04/23 07:41:42;;;;;;;7.28;4.38;;;;;;;8.20;59.04;96591.03;2202008;26;20263;-66
2024/04/23 07:42:44;;;;;;;10.20;4.65;;;;;;;8.30;59.98;96589.78;2197773;26;20779;-66
2024/04/23 07:43:46;;;;;;;6.00;4.28;;;;;;;8.57;58.95;96600.97;2199796;26;20216;-66
2024/04/23 07:44:47;;;;;;;7.32;4.00;;;;;;;8.54;58.59;96592.44;2201659;26;20266;-66
2024/04/23 07:45:49;;;;;;;8.00;5.07;;;;;;;8.97;58.17;96590.78;2202614;26;20546;-66
2024/04/23 07:46:50;;;;;;;5.85;3.70;;;;;;;8.90;57.01;96592.78;2205254;26;20223;-63
2024/04/23 07:47:52;;;;;;;8.93;4.35;;;;;;;8.58;57.59;96592.25;2205999;26;20219;-63
2024/04/23 07:48:54;;;;;;;7.43;4.50;;;;;;;8.81;56.58;96590.50;2205904;26;20328;-63
2024/04/23 07:49:55;;;;;;;9.85;4.07;;;;;;;8.88;57.12;96591.97;2202831;26;20219;-63
2024/04/23 07:51:00;;;;;;;11.75;5.28;;;;;;;8.75;56.94;96591.63;2198300;26;20586;-63
2024/04/23 07:52:02;;;;;;;7.90;4.50;;;;;;;8.97;57.42;96594.22;2209806;26;20224;-66
2024/04/23 07:53:04;;;;;;;9.98;4.97;;;;;;;8.50;57.95;96592.53;2206567;26;20313;-66
2024/04/23 07:54:06;;;;;;;10.02;4.53;;;;;;;8.73;57.92;96595.19;2210244;26;20218;-66
2024/04/23 07:55:07;;;;;;;7.95;4.15;;;;;;;7.78;58.16;96600.28;2210758;26;20261;-66
2024/04/23 07:56:10;;;;;;;8.48;5.10;;;;;;;8.29;57.82;96590.69;2206429;26;20293;-66
2024/04/23 07:57:19;;;;;;;7.72;4.50;;;;;;;8.44;57.78;96594.47;2205924;26;20259;-66
2024/04/23 07:58:21;;;;;;;8.85;4.30;;;;;;;8.46;58.02;96588.34;2205424;26;20221;-66
2024/04/23 07:59:22;;;;;;;8.13;4.60;;;;;;;8.69;57.73;96597.06;2201847;26;20221;-66
2024/04/23 08:00:27;;;;;;;10.07;4.60;;;;;;;8.70;58.51;96592.69;2198981;26;20263;-66
2024/04/23 08:01:29;;;;;;;7.72;4.95;;;;;;;8.98;58.48;96595.09;2204149;26;20315;-66
2024/04/23 08:02:30;;;;;;;7.03;4.30;;;;;;;8.82;57.76;96597.44;2196458;26;20276;-66
2024/04/23 08:03:34;;;;;;;6.93;4.60;;;;;;;9.00;57.39;96598.47;2201863;26;20322;-66
2024/04/23 08:04:36;;;;;;;7.57;4.68;;;;;;;8.94;57.54;96591.75;2205173;26;20271;-66
2024/04/23 08:05:37;;;;;;;8.65;4.95;;;;;;;9.25;56.93;96592.28;2202023;26;20240;-66
2024/04/23 08:06:39;;;;;;;7.78;4.10;;;;;;;9.08;57.13;96590.38;2205935;26;20637;-66
2024/04/23 08:07:40;;;;;;;6.07;4.13;;;;;;;9.04;56.15;96580.97;2204937;26;20300;-66
2024/04/23 08:08:42;;;;;;;16.85;4.70;;;;;;;8.98;56.52;96588.09;2201612;26;20701;-66
2024/04/23 08:09:44;;;;;;;6.72;4.50;;;;;;;8.90;57.29;96590.19;2207391;26;20706;-66
2024/04/23 08:10:45;;;;;;;8.68;4.72;;;;;;;9.03;57.52;96587.06;2209628;26;20266;-66
2024/04/23 08:11:47;;;;;;;7.10;4.78;;;;;;;8.99;57.10;96584.59;2206481;26;20260;-63
2024/04/23 08:12:50;;;;;;;9.30;5.40;;;;;;;9.13;56.50;96586.66;2207833;26;20274;-63
2024/04/23 08:13:52;;;;;;;8.77;4.75;;;;;;;9.03;56.86;96589.69;2204167;26;21439;-66
2024/04/23 08:14:53;;;;;;;8.20;4.65;;;;;;;9.03;56.69;96592.28;2206894;26;20235;-66
2024/04/23 08:15:56;;;;;;;8.52;4.75;;;;;;;9.06;56.99;96589.56;2200408;26;20303;-66
2024/04/23 08:16:58;;;;;;;6.68;4.15;;;;;;;9.51;56.68;96592.97;2204174;26;20227;-67
2024/04/23 08:18:57;;;;;;;12.32;5.13;;;;;;;9.24;55.05;96586.25;2256036;25;21109;-66
2024/04/23 08:21:05;;;;;;;8.40;4.38;;;;;;;9.27;55.84;96587.88;2222112;26;20637;-67
2024/04/23 08:23:07;;;;;;;6.20;4.25;;;;;;;9.45;56.08;96592.31;2224752;26;20582;-66
2024/04/23 08:24:09;;;;;;;6.28;4.25;;;;;;;9.57;55.73;96588.38;2223229;26;20219;-67
2024/04/23 08:26:14;;;;;;;7.53;4.70;;;;;;;9.57;55.47;96587.53;2238567;25;20576;-67
2024/04/23 08:33:44;;;;;;;6.78;4.38;;;;;;;9.47;57.74;96587.91;2283090;25;20868;-63
2024/04/23 08:35:58;;;;;;;8.10;4.63;;;;;;;9.61;55.70;96584.72;2219922;26;21341;-63
2024/04/23 08:38:13;;;;;;;6.72;4.03;;;;;;;9.72;55.35;96576.44;2222408;26;20575;-63
2024/04/23 08:40:28;;;;;;;6.28;4.32;;;;;;;9.56;55.29;96573.66;2225028;26;20587;-66
2024/04/23 08:42:46;;;;;;;6.00;3.88;;;;;;;9.52;54.99;96585.09;2270069;25;20562;-66
2024/04/23 08:45:01;;;;;;;7.60;4.05;;;;;;;9.62;54.97;96582.97;2269707;25;20915;-67
2024/04/23 08:47:15;;;;;;;11.93;6.65;;;;;;;9.63;54.17;96582.88;2241087;26;20578;-67
2024/04/23 08:49:28;;;;;;;12.30;8.18;;;;;;;9.78;54.66;96583.19;2256596;25;20621;-67
2024/04/23 08:51:42;;;;;;;7.35;4.03;;;;;;;9.58;53.81;96579.63;2220828;26;20802;-67
2024/04/23 08:53:57;;;;;;;6.65;3.70;;;;;;;9.42;53.19;96578.56;2250191;26;20622;-67
2024/04/23 08:56:16;;;;;;;8.63;4.57;;;;;;;10.12;54.68;96576.50;2247287;25;20573;-66
2024/04/23 08:58:28;;;;;;;8.30;3.85;;;;;;;10.44;53.36;96580.31;2223072;26;20620;-67
2024/04/23 09:00:41;;;;;;;13.20;4.28;;;;;;;10.27;53.38;96580.19;2262026;25;20562;-63
2024/04/23 09:03:04;;;;;;;9.25;4.47;;;;;;;10.04;54.21;96581.19;2224437;26;20631;-64
2024/04/23 09:05:14;;;;;;;6.63;4.03;;;;;;;9.87;54.04;96577.56;2269208;25;20567;-63
2024/04/23 09:07:23;;;;;;;8.15;5.20;;;;;;;9.84;53.35;96576.84;2243830;26;20580;-63
2024/04/23 09:09:37;;;;;;;6.10;3.95;;;;;;;10.06;53.51;96576.78;2226553;26;20577;-63
2024/04/23 09:11:43;;;;;;;6.53;4.15;;;;;;;10.12;54.51;96576.50;2226650;26;20918;-63
2024/04/23 09:13:50;;;;;;;10.10;4.50;;;;;;;10.48;52.91;96573.19;2285879;25;20558;-63
2024/04/23 09:15:53;;;;;;;6.63;3.80;;;;;;;10.28;52.97;96569.69;2259623;25;21094;-63
2024/04/23 09:16:56;;;;;;;8.77;5.18;;;;;;;10.26;51.92;96574.13;2244095;26;20644;-63
2024/04/23 09:19:01;;;;;;;20.20;4.95;;;;;;;9.99;53.52;96565.72;2269919;25;20618;-63
2024/04/23 09:21:04;;;;;;;7.32;3.97;;;;;;;9.53;52.68;96571.16;2222456;26;20626;-63
2024/04/23 09:23:06;;;;;;;10.55;4.78;;;;;;;9.94;53.47;96570.31;2256914;25;20611;-63
2024/04/23 09:24:08;;;;;;;8.85;4.43;;;;;;;10.22;53.64;96576.94;2251682;26;20262;-63
2024/04/23 09:26:08;;;;;;;8.32;4.47;;;;;;;10.64;52.26;96578.56;2242476;25;20559;-63
2024/04/23 09:27:10;;;;;;;6.95;4.82;;;;;;;10.24;52.29;96577.72;2219833;26;20631;-63
2024/04/23 09:28:22;;;;;;;9.05;4.35;;;;;;;10.61;52.81;96578.69;2220519;26;20780;-63
2024/04/23 09:30:29;;;;;;;5.30;3.50;;;;;;;10.92;52.25;96580.72;2226255;26;20623;-64
2024/04/23 09:31:35;;;;;;;7.32;4.60;;;;;;;11.02;51.64;96578.53;2164786;27;21054;-64
2024/04/23 09:32:37;;;;;;;5.50;3.40;;;;;;;11.23;51.88;96568.81;2167645;27;20992;-64
2024/04/23 09:33:39;;;;;;;9.40;4.53;;;;;;;11.51;51.60;96575.28;2163576;27;20515;-63
2024/04/23 09:34:40;;;;;;;7.35;4.55;;;;;;;11.16;51.17;96571.78;2164427;27;20265;-63
2024/04/23 09:35:44;;;;;;;11.10;3.85;;;;;;;11.60;50.99;96574.84;2167755;27;20219;-64
2024/04/23 09:37:48;;;;;;;7.07;3.80;;;;;;;11.41;49.16;96564.47;2229663;26;21076;-63
2024/04/23 09:39:04;;;;;;;7.80;4.45;;;;;;;11.57;49.09;96564.53;2222562;26;20242;-63
2024/04/23 09:40:06;;;;;;;7.93;3.90;;;;;;;11.68;50.26;96565.75;2219822;26;20206;-63
2024/04/23 09:41:09;;;;;;;8.63;4.18;;;;;;;11.76;50.35;96563.63;2207812;26;20302;-63
2024/04/23 09:42:11;;;;;;;5.80;3.83;;;;;;;12.03;49.97;96560.53;2211677;26;20262;-63
2024/04/23 09:43:12;;;;;;;5.93;4.13;;;;;;;11.81;49.46;96566.84;2199343;26;20632;-64
2024/04/23 09:44:17;;;;;;;12.48;4.45;;;;;;;11.79;49.74;96552.97;2192476;27;20260;-63
2024/04/23 09:45:31;;;;;;;13.10;4.03;;;;;;;11.69;48.95;96555.22;2194238;27;20230;-64
2024/04/23 09:46:33;;;;;;;6.32;3.95;;;;;;;12.18;48.99;96548.44;2195887;26;20233;-63
2024/04/23 09:47:44;;;;;;;8.07;4.25;;;;;;;11.96;49.07;96554.78;2198532;26;21061;-65
2024/04/23 09:48:46;;;;;;;8.43;4.35;;;;;;;11.83;48.57;96551.06;2201254;26;20334;-63
2024/04/23 09:49:55;;;;;;;13.43;3.70;;;;;;;12.17;49.48;96544.94;2207552;26;20268;-63
2024/04/23 09:51:04;;;;;;;6.63;4.15;;;;;;;12.57;49.72;96547.22;2205155;26;20298;-63
2024/04/23 09:52:06;;;;;;;7.75;4.25;;;;;;;12.05;50.10;96553.47;2203681;26;20217;-63
2024/04/23 09:53:09;;;;;;;8.40;4.20;;;;;;;11.79;48.98;96554.78;2207669;26;20222;-63
2024/04/23 09:54:11;;;;;;;9.82;3.75;;;;;;;11.91;49.40;96546.28;2207700;26;20282;-65
2024/04/23 09:55:14;;;;;;;7.97;4.05;;;;;;;12.43;48.72;96550.59;2208295;26;20660;-66
2024/04/23 09:56:20;;;;;;;8.57;4.30;;;;;;;12.13;48.22;96543.44;2199762;26;20253;-65
2024/04/23 09:57:21;;;;;;;8.18;4.05;;;;;;;11.46;49.82;96550.31;2205442;26;20867;-65
2024/04/23 09:58:23;;;;;;;9.35;5.25;;;;;;;11.54;50.22;96543.78;2205466;26;20263;-65
2024/04/23 09:59:29;;;;;;;6.03;4.45;;;;;;;11.79;49.13;96549.53;2203364;26;20260;-63
2024/04/23 10:00:33;;;;;;;7.00;4.40;;;;;;;12.22;48.57;96540.31;2206897;26;20367;-63
2024/04/23 10:01:35;;;;;;;11.77;4.00;;;;;;;12.36;48.25;96536.97;2206793;26;20215;-63
2024/04/23 10:02:40;;;;;;;6.43;3.83;;;;;;;12.49;47.31;96538.94;2198529;26;20222;-63
2024/04/23 10:03:43;;;;;;;9.93;4.00;;;;;;;12.99;47.24;96539.69;2202253;26;20272;-63
2024/04/23 10:04:49;;;;;;;7.57;3.80;;;;;;;12.87;47.12;96539.47;2205052;26;20233;-63
2024/04/23 10:05:54;;;;;;;5.63;3.22;;;;;;;12.26;46.94;96543.63;2201230;26;20254;-63
2024/04/23 10:06:56;;;;;;;8.98;3.53;;;;;;;12.64;45.89;96538.09;2201324;26;20291;-62
2024/04/23 10:08:17;;;;;;;8.05;3.85;;;;;;;13.27;46.21;96541.59;2207655;26;20563;-63
2024/04/23 10:09:28;;;;;;;7.80;3.75;;;;;;;13.51;45.71;96539.38;2202011;26;20951;-63
2024/04/23 10:10:40;;;;;;;5.95;3.88;;;;;;;13.22;45.95;96538.41;2205094;26;20221;-63
2024/04/23 10:12:05;;;;;;;7.03;3.92;;;;;;;12.95;46.05;96533.78;2205559;26;20714;-63
2024/04/23 10:13:09;;;;;;;8.05;3.97;;;;;;;13.39;46.52;96526.97;2207038;26;20283;-63
2024/04/23 10:14:22;;;;;;;6.43;3.65;;;;;;;13.45;45.86;96531.84;2203768;26;20221;-63
2024/04/23 10:15:31;;;;;;;5.60;3.80;;;;;;;13.63;44.64;96529.09;2196982;26;20238;-63
2024/04/23 10:16:39;;;;;;;5.63;3.40;;;;;;;13.80;44.15;96528.94;2199015;26;20276;-63
2024/04/23 10:17:54;;;;;;;8.27;4.22;;;;;;;14.26;45.61;96529.72;2202353;26;20230;-63
2024/04/23 10:19:03;;;;;;;9.98;4.60;;;;;;;13.41;45.06;96525.13;2203905;26;20214;-63
2024/04/23 10:20:07;;;;;;;7.18;3.95;;;;;;;13.01;45.43;96525.56;2197641;26;20218;-63
2024/04/23 10:21:13;;;;;;;7.18;3.97;;;;;;;12.17;47.09;96534.47;2199182;26;20318;-62
2024/04/23 10:22:15;;;;;;;6.68;3.63;;;;;;;12.07;47.67;96530.66;2198885;26;20260;-63
2024/04/23 10:23:19;;;;;;;7.05;4.07;;;;;;;12.07;47.21;96520.19;2198160;26;20319;-63
2024/04/23 10:24:22;;;;;;;14.13;3.63;;;;;;;12.06;46.97;96524.59;2201619;26;20318;-63
2024/04/23 10:25:24;;;;;;;6.93;3.75;;;;;;;13.08;47.16;96520.84;2195763;26;20597;-63
2024/04/23 10:26:26;;;;;;;6.97;4.30;;;;;;;13.70;45.96;96525.19;2199035;26;20771;-63
2024/04/23 10:27:29;;;;;;;9.57;3.65;;;;;;;14.21;45.17;96530.84;2204897;26;20216;-63
2024/04/23 10:28:31;;;;;;;6.57;4.82;;;;;;;14.35;45.21;96529.16;2198397;26;20320;-63
2024/04/23 10:29:34;;;;;;;6.95;3.85;;;;;;;14.72;44.87;96519.00;2199835;26;20322;-63
2024/04/23 10:30:37;;;;;;;6.20;4.18;;;;;;;14.55;43.52;96527.94;2204027;26;20255;-63
2024/04/23 10:31:40;;;;;;;14.05;4.00;;;;;;;13.54;44.64;96525.25;2199506;26;20265;-63
2024/04/23 10:32:42;;;;;;;6.68;3.65;;;;;;;14.49;45.39;96528.31;2210063;26;20212;-66
2024/04/23 10:33:48;;;;;;;6.95;4.28;;;;;;;14.37;44.11;96522.03;2208050;26;20761;-63
2024/04/23 10:34:52;;;;;;;6.43;3.97;;;;;;;13.39;45.23;96517.34;2205308;26;20271;-63
2024/04/23 10:35:54;;;;;;;8.70;4.43;;;;;;;12.55;45.05;96531.56;2196929;26;20255;-62
2024/04/23 10:36:56;;;;;;;6.60;3.53;;;;;;;13.65;45.72;96524.59;2203143;26;20216;-63
2024/04/23 10:37:59;;;;;;;7.45;3.83;;;;;;;14.46;44.69;96518.84;2198676;26;20277;-63
2024/04/23 10:39:02;;;;;;;6.72;4.25;;;;;;;14.53;44.79;96528.00;2200765;26;20218;-63
2024/04/23 10:40:07;;;;;;;5.88;3.78;;;;;;;14.65;44.71;96523.81;2205419;26;20225;-63
2024/04/23 10:41:11;;;;;;;7.80;3.45;;;;;;;15.02;43.50;96515.38;2198215;26;20679;-63
2024/04/23 10:42:14;;;;;;;61.15;34.47;;;;;;;15.03;42.97;96514.41;2204635;26;21305;-64
2024/04/23 10:43:18;;;;;;;20.65;9.80;;;;;;;14.61;41.24;96517.00;2206521;26;20301;-64
2024/04/23 10:44:21;;;;;;;19.80;10.02;;;;;;;13.57;43.30;96511.94;2208625;26;20272;-63
2024/04/23 10:45:23;;;;;;;8.50;4.50;;;;;;;13.36;45.21;96519.25;2202044;26;20689;-63
2024/04/23 10:46:25;;;;;;;5.40;3.63;;;;;;;14.79;44.51;96515.06;2207064;26;20248;-63
2024/04/23 10:47:29;;;;;;;7.68;3.85;;;;;;;14.56;43.33;96519.09;2201704;26;20225;-65
2024/04/23 10:48:36;;;;;;;10.35;3.85;;;;;;;14.89;43.06;96514.47;2197358;26;20254;-66
2024/04/23 10:49:40;;;;;;;5.97;3.75;;;;;;;14.91;43.16;96515.22;2192353;26;20664;-66
2024/04/23 10:50:52;;;;;;;6.53;3.85;;;;;;;15.15;42.66;96508.34;2194858;26;20273;-66
2024/04/23 10:51:56;;;;;;;8.65;3.97;;;;;;;14.97;42.51;80536.22;2201665;26;20233;-65
2024/04/23 10:52:59;;;;;;;4.78;3.40;;;;;;;15.03;41.65;96514.41;2198835;26;20216;-66
2024/04/23 10:54:02;;;;;;;6.50;3.63;;;;;;;15.32;42.20;96511.66;2197107;26;20218;-66
2024/04/23 10:55:06;;;;;;;7.78;4.57;;;;;;;15.44;40.86;96510.88;2186204;26;20359;-63
2024/04/23 10:56:07;;;;;;;6.00;3.60;;;;;;;15.97;40.94;96499.47;2185431;26;20257;-64
2024/04/23 10:57:09;;;;;;;7.22;3.70;;;;;;;14.75;40.86;96510.09;2186301;26;20349;-63
2024/04/23 10:58:11;;;;;;;5.07;3.60;;;;;;;14.62;42.72;96508.19;2185786;26;20439;-64
2024/04/23 10:59:16;;;;;;;3.80;2.85;;;;;;;15.91;42.06;96502.50;2194184;26;20249;-63
2024/04/23 11:00:32;;;;;;;6.10;3.80;;;;;;;16.37;39.34;96501.13;2196663;26;20261;-65
2024/04/23 11:01:35;;;;;;;5.00;3.25;;;;;;;16.39;38.84;96496.59;2220272;26;20580;-63
2024/04/23 11:02:40;;;;;;;6.90;3.83;;;;;;;15.92;39.22;96491.03;2220292;26;20700;-63
2024/04/23 11:03:41;;;;;;;5.90;3.75;;;;;;;15.23;41.04;96497.34;2197727;26;20324;-64
2024/04/23 11:04:47;;;;;;;6.18;3.35;;;;;;;16.06;40.92;96492.72;2198715;26;20830;-64
2024/04/23 11:05:49;;;;;;;7.75;4.07;;;;;;;16.53;41.51;96490.34;2199015;26;20217;-64
2024/04/23 11:07:00;;;;;;;5.85;3.92;;;;;;;16.21;42.02;96489.00;2197656;26;20284;-64
2024/04/23 11:08:07;;;;;;;6.40;3.30;;;;;;;15.40;41.54;96492.75;2198079;26;20524;-64
2024/04/23 11:09:19;;;;;;;5.43;3.58;;;;;;;15.71;41.77;96494.16;2199386;26;20263;-64
2024/04/23 11:10:21;;;;;;;8.10;3.90;;;;;;;16.37;39.22;96486.16;2204708;26;20252;-64
2024/04/23 11:11:23;;;;;;;7.40;3.55;;;;;;;14.21;41.18;96491.47;2201905;26;20260;-64
2024/04/23 11:12:26;;;;;;;7.75;3.78;;;;;;;14.68;41.59;96486.00;2200888;26;20216;-63
2024/04/23 11:13:40;;;;;;;6.63;3.70;;;;;;;15.31;40.89;96486.31;2199248;26;20272;-63
2024/04/23 11:14:42;;;;;;;9.50;3.80;;;;;;;15.58;40.40;96480.13;2193673;26;20222;-64
2024/04/23 11:15:44;;;;;;;5.65;3.75;;;;;;;16.33;40.53;96474.97;2191225;26;20522;-63
2024/04/23 11:16:45;;;;;;;6.15;3.42;;;;;;;16.46;39.29;96474.13;2195621;26;20851;-63
2024/04/23 11:17:47;;;;;;;7.28;3.60;;;;;;;14.78;40.34;96480.97;2192584;26;20401;-63
2024/04/23 11:18:52;;;;;;;6.80;3.25;;;;;;;14.91;41.90;96475.78;2194267;26;20210;-63
2024/04/23 11:19:56;;;;;;;7.28;3.83;;;;;;;15.23;43.07;96480.72;2196263;26;20223;-63
2024/04/23 11:21:00;;;;;;;5.32;3.90;;;;;;;14.70;42.92;96478.84;2193102;26;20270;-64
2024/04/23 11:22:13;;;;;;;7.78;3.80;;;;;;;14.07;42.59;96486.22;2196980;26;20242;-64
2024/04/23 11:23:20;;;;;;;5.15;3.55;;;;;;;14.41;41.64;96476.25;2193891;26;20226;-64
2024/04/23 11:24:24;;;;;;;5.38;3.75;;;;;;;12.50;42.60;96481.22;2203557;26;20271;-64
2024/04/23 11:25:33;;;;;;;7.30;3.42;;;;;;;13.92;42.05;96477.50;2194865;26;20218;-64
2024/04/23 11:26:36;;;;;;;4.40;2.95;;;;;;;14.90;41.21;96479.34;2198334;26;20954;-64
2024/04/23 11:27:37;;;;;;;5.10;3.25;;;;;;;15.79;41.00;96470.78;2197359;26;20222;-63
2024/04/23 11:28:39;;;;;;;6.75;3.38;;;;;;;15.64;40.08;96477.94;2197351;26;20540;-63
2024/04/23 11:29:42;;;;;;;5.93;3.88;;;;;;;14.71;40.90;96474.44;2194909;26;20255;-64
2024/04/23 11:30:51;;;;;;;6.57;3.70;;;;;;;14.18;42.22;96478.53;2190456;26;20213;-64
2024/04/23 11:31:54;;;;;;;6.70;3.78;;;;;;;14.55;42.24;96470.13;2197666;26;20238;-64
2024/04/23 11:32:56;;;;;;;5.97;3.50;;;;;;;14.77;41.86;96466.16;2196853;26;20233;-64
2024/04/23 11:33:59;;;;;;;6.30;3.53;;;;;;;14.11;40.76;96471.13;2202043;26;20221;-64
2024/04/23 11:35:06;;;;;;;4.70;2.85;;;;;;;14.53;41.78;96464.94;2200260;26;20213;-64
2024/04/23 11:36:09;;;;;;;15.88;8.30;;;;;;;14.94;40.98;96463.25;2197142;26;20688;-64
2024/04/23 11:37:24;;;;;;;10.68;5.80;;;;;;;15.57;42.11;96452.16;2190379;26;20234;-63
2024/04/23 11:38:25;;;;;;;11.43;3.33;;;;;;;15.62;41.62;96457.94;2198800;26;20212;-64
2024/04/23 11:39:27;;;;;;;6.30;3.70;;;;;;;15.84;41.03;96459.97;2196675;26;20221;-63
2024/04/23 11:40:28;;;;;;;8.63;3.53;;;;;;;16.02;40.81;96457.03;2192945;26;20217;-63
2024/04/23 11:41:30;;;;;;;4.30;2.88;;;;;;;15.13;40.94;96457.63;2201749;26;20232;-64
2024/04/23 11:42:32;;;;;;;6.40;2.90;;;;;;;15.55;40.43;96457.50;2200870;26;20232;-64
2024/04/23 11:43:34;;;;;;;8.85;4.47;;;;;;;14.74;39.85;96461.09;2195401;26;20272;-63
2024/04/23 11:44:36;;;;;;;14.07;6.60;;;;;;;15.76;38.83;96455.22;2192828;26;20226;-63
2024/04/23 11:45:37;;;;;;;10.95;4.40;;;;;;;16.64;39.05;96456.97;2199025;26;20264;-63
2024/04/23 11:46:40;;;;;;;6.13;2.67;;;;;;;16.99;38.92;96460.69;2195740;26;20527;-63
2024/04/23 11:47:43;;;;;;;5.20;3.45;;;;;;;17.28;38.21;96458.53;2196535;26;20322;-63
2024/04/23 11:48:45;;;;;;;5.55;2.85;;;;;;;17.28;38.36;96455.88;2200327;26;20216;-64
2024/04/23 11:49:46;;;;;;;6.43;2.38;;;;;;;16.75;38.30;96447.47;2199123;26;20240;-64
2024/04/23 11:50:48;;;;;;;4.88;3.20;;;;;;;16.35;38.01;96443.25;2199408;26;20295;-64
2024/04/23 11:51:50;;;;;;;4.97;2.50;;;;;;;16.68;38.38;96440.94;2197357;26;20226;-63
2024/04/23 11:52:52;;;;;;;6.97;2.83;;;;;;;15.60;39.21;96442.25;2196609;26;20252;-63
2024/04/23 11:53:55;;;;;;;4.07;2.78;;;;;;;15.12;41.28;96448.09;2199248;26;20761;-64
2024/04/23 11:54:57;;;;;;;4.05;2.70;;;;;;;14.78;41.81;96445.03;2198319;26;20259;-63
2024/04/23 11:55:58;;;;;;;6.80;2.90;;;;;;;13.87;42.57;96454.13;2199996;26;20257;-63
2024/04/23 11:57:00;;;;;;;4.32;2.95;;;;;;;14.02;42.38;96454.16;2197609;26;20217;-63
2024/04/23 11:58:02;;;;;;;5.50;3.50;;;;;;;14.51;40.80;96450.22;2198289;26;20221;-64
2024/04/23 11:59:05;;;;;;;5.45;3.20;;;;;;;15.10;40.22;96449.97;2191073;26;20230;-63
2024/04/23 12:00:07;;;;;;;5.65;2.92;;;;;;;14.40;41.03;96443.03;2194533;26;20229;-64
2024/04/23 12:01:09;;;;;;;5.25;2.70;;;;;;;15.13;40.24;96438.41;2199446;26;20283;-63
2024/04/23 12:02:12;;;;;;;7.50;3.20;;;;;;;15.74;39.84;96436.03;2193816;26;20216;-63
2024/04/23 12:03:15;;;;;;;4.65;3.22;;;;;;;15.99;40.15;96442.28;2195698;26;20230;-64
2024/04/23 12:04:18;;;;;;;5.45;2.88;;;;;;;15.84;40.00;96436.28;2200115;26;20935;-63
2024/04/23 12:05:21;;;;;;;3.67;2.60;;;;;;;15.57;40.51;96446.91;2194425;26;20490;-64
2024/04/23 12:06:24;;;;;;;5.20;2.75;;;;;;;15.09;40.87;96443.00;2201189;26;20260;-63
2024/04/23 12:07:25;;;;;;;4.13;2.80;;;;;;;13.83;42.32;96446.56;2194799;26;20281;-64
2024/04/23 12:08:27;;;;;;;4.10;2.53;;;;;;;13.69;42.54;96444.78;2190795;26;20573;-64
2024/04/23 12:09:30;;;;;;;10.32;3.10;;;;;;;13.64;41.82;96449.47;2192919;26;20230;-63
2024/04/23 12:10:36;;;;;;;3.45;2.50;;;;;;;13.78;41.65;96446.84;2198185;26;20724;-64
2024/04/23 12:11:38;;;;;;;3.90;2.90;;;;;;;13.65;40.79;96441.50;2200182;26;20323;-63
2024/04/23 12:12:41;;;;;;;6.88;3.00;;;;;;;14.05;40.20;96446.09;2199988;26;20856;-64
2024/04/23 12:13:47;;;;;;;5.15;2.97;;;;;;;15.25;39.68;96447.25;2199393;26;20556;-63
2024/04/23 12:14:50;;;;;;;5.68;2.90;;;;;;;15.28;39.43;96436.53;2200771;26;20252;-63
2024/04/23 12:15:51;;;;;;;6.68;3.10;;;;;;;14.32;40.41;96437.41;2197430;26;20253;-63
2024/04/23 12:17:04;;;;;;;4.63;3.15;;;;;;;15.36;39.56;96434.22;2191998;26;20594;-63
2024/04/23 12:18:05;;;;;;;8.93;4.30;;;;;;;13.78;40.97;96436.34;2197308;26;20260;-63
2024/04/23 12:19:08;;;;;;;5.60;3.30;;;;;;;13.78;40.97;96436.34;2196271;26;20223;-63
2024/04/23 12:20:10;;;;;;;5.90;2.80;;;;;;;12.47;41.30;96431.66;2194271;26;20217;-63
2024/04/23 12:21:13;;;;;;;5.60;3.45;;;;;;;13.87;40.81;96424.44;2197659;26;20257;-63
2024/04/23 12:22:15;;;;;;;7.47;4.32;;;;;;;12.59;42.86;96437.97;2201670;26;20565;-64
2024/04/23 12:23:17;;;;;;;7.30;3.97;;;;;;;13.28;42.72;96429.69;2199016;26;20268;-63
2024/04/23 12:24:20;;;;;;;4.32;3.10;;;;;;;13.42;43.38;96429.75;2190537;26;20234;-63
2024/04/23 12:25:24;;;;;;;12.40;4.15;;;;;;;13.11;42.84;96441.16;2186497;26;20222;-63
2024/04/23 12:26:26;;;;;;;5.22;3.40;;;;;;;13.23;42.97;96441.28;2198643;26;20249;-63
2024/04/23 12:27:28;;;;;;;9.98;4.97;;;;;;;13.19;42.34;96437.16;2200647;26;20699;-63
2024/04/23 12:28:29;;;;;;;6.20;3.30;;;;;;;12.89;42.00;96432.75;2198442;26;20256;-63
2024/04/23 12:29:31;;;;;;;5.32;2.97;;;;;;;13.25;42.83;96435.97;2192033;26;20218;-63
2024/04/23 12:30:32;;;;;;;7.45;3.65;;;;;;;14.24;41.37;96430.03;2190910;26;20671;-64
2024/04/23 12:31:34;;;;;;;5.70;3.40;;;;;;;13.90;42.05;96437.38;2191119;26;20793;-64
2024/04/23 12:32:36;;;;;;;5.10;3.63;;;;;;;13.92;41.86;96432.88;2195645;26;20249;-63
2024/04/23 12:33:38;;;;;;;8.35;4.05;;;;;;;13.63;42.33;96432.84;2191904;26;20265;-64
2024/04/23 12:34:40;;;;;;;6.00;3.50;;;;;;;14.32;41.43;96432.16;2197776;26;20233;-63
2024/04/23 12:35:43;;;;;;;4.47;2.70;;;;;;;14.91;38.97;96425.84;2192613;26;20331;-64
2024/04/23 12:36:51;;;;;;;5.57;2.88;;;;;;;14.52;38.41;96421.25;2190967;26;20217;-64
2024/04/23 12:37:57;;;;;;;7.32;4.35;;;;;;;15.34;39.42;96418.53;2191364;26;20217;-64
2024/04/23 12:39:10;;;;;;;6.32;3.53;;;;;;;15.86;39.55;96413.34;2197137;26;20261;-63
2024/04/23 12:40:12;;;;;;;6.20;2.83;;;;;;;16.24;38.89;96414.19;2197270;26;20339;-63
2024/04/23 12:41:18;;;;;;;5.20;3.00;;;;;;;16.02;38.91;96422.78;2198922;26;20355;-63
2024/04/23 12:42:24;;;;;;;7.90;3.20;;;;;;;16.72;38.56;96419.53;2203133;26;20255;-63